createdAt,value
2023-01-12T05:00:50.275Z,7.13
2023-01-12T05:01:49.723Z,7.12
2023-01-12T05:02:51.364Z,7.10
2023-01-12T05:03:49.663Z,7.07
2023-01-12T05:04:49.638Z,7.07
2023-01-12T05:05:49.603Z,7.05
2023-01-12T05:06:49.698Z,7.05
2023-01-12T05:07:49.598Z,7.02
2023-01-12T05:08:49.578Z,7.02
2023-01-12T05:09:49.545Z,6.99
2023-01-12T05:10:49.566Z,7.02
2023-01-12T05:11:49.541Z,7.02
2023-01-12T05:12:49.587Z,7.05
2023-01-12T05:14:01.780Z,7.03
2023-01-12T05:14:49.506Z,7.06
2023-01-12T05:15:49.486Z,7.09
2023-01-12T05:16:49.503Z,7.06
2023-01-12T05:17:49.440Z,7.06
2023-01-12T05:18:49.514Z,7.07
2023-01-12T05:19:49.419Z,7.07
2023-01-12T05:20:49.446Z,7.10
2023-01-12T05:21:49.396Z,7.13
2023-01-12T05:22:49.403Z,7.20
2023-01-12T05:23:49.421Z,7.23
2023-01-12T05:24:49.477Z,7.24
2023-01-12T05:25:49.363Z,7.27
2023-01-12T05:26:49.394Z,7.28
2023-01-12T05:27:49.331Z,7.30
2023-01-12T05:28:49.344Z,7.31
2023-01-12T05:29:49.306Z,7.32
2023-01-12T05:30:49.551Z,7.32
2023-01-12T05:31:49.297Z,7.34
2023-01-12T05:32:49.274Z,7.35
2023-01-12T05:33:49.300Z,7.37
2023-01-12T05:34:49.255Z,7.37
2023-01-12T05:35:49.223Z,7.39
2023-01-12T05:36:49.311Z,7.40
2023-01-12T05:37:49.192Z,7.42
2023-01-12T05:38:49.182Z,7.42
2023-01-12T05:39:49.314Z,7.43
2023-01-12T05:40:49.220Z,7.45
2023-01-12T05:41:49.253Z,7.42
2023-01-12T05:42:49.161Z,7.43
2023-01-12T05:43:49.127Z,7.43
2023-01-12T05:44:49.137Z,7.46
2023-01-12T05:45:49.100Z,7.46
2023-01-12T05:46:49.653Z,7.45
2023-01-12T05:47:49.066Z,7.46
2023-01-12T05:48:49.062Z,7.45
2023-01-12T05:49:49.038Z,7.48
2023-01-12T05:50:49.072Z,7.49
2023-01-12T05:51:49.012Z,7.53
2023-01-12T05:52:49.082Z,7.53
2023-01-12T05:53:48.990Z,7.57
2023-01-12T05:54:49.011Z,7.60
2023-01-12T05:55:48.959Z,7.63
2023-01-12T05:56:49.943Z,7.63
2023-01-12T05:57:48.935Z,7.63
2023-01-12T05:58:48.980Z,7.64
2023-01-12T05:59:48.977Z,7.64
2023-01-12T06:00:48.914Z,7.67
2023-01-12T06:01:48.902Z,7.69
2023-01-12T06:02:48.878Z,7.72
2023-01-12T06:03:48.850Z,7.72
2023-01-12T06:04:48.886Z,7.74
2023-01-12T06:05:48.886Z,7.75
2023-01-12T06:06:48.834Z,7.75
2023-01-12T06:07:48.806Z,7.77
2023-01-12T06:08:50.703Z,7.77
2023-01-12T06:09:48.779Z,7.75
2023-01-12T06:10:48.793Z,7.75
2023-01-12T06:11:48.851Z,7.77
2023-01-12T06:12:48.758Z,7.79
2023-01-12T06:13:48.741Z,7.80
2023-01-12T06:14:48.737Z,7.80
2023-01-12T06:15:48.752Z,7.77
2023-01-12T06:16:48.715Z,7.75
2023-01-12T06:17:48.753Z,7.75
2023-01-12T06:18:48.684Z,7.75
2023-01-12T06:19:48.711Z,7.72
2023-01-12T06:20:48.662Z,7.72
2023-01-12T06:21:48.637Z,7.71
2023-01-12T06:22:48.638Z,7.71
2023-01-12T06:23:48.630Z,7.68
2023-01-12T06:24:48.612Z,7.67
2023-01-12T06:25:48.717Z,7.67
2023-01-12T06:26:48.594Z,7.68
2023-01-12T06:27:48.541Z,7.68
2023-01-12T06:28:48.579Z,7.67
2023-01-12T06:29:48.589Z,7.67
2023-01-12T06:30:48.571Z,7.67
2023-01-12T06:31:48.502Z,7.68
2023-01-12T06:32:48.604Z,7.67
2023-01-12T06:33:48.491Z,7.71
2023-01-12T06:34:48.487Z,7.75
2023-01-12T06:35:48.538Z,7.75
2023-01-12T06:36:48.478Z,7.79
2023-01-12T06:37:48.434Z,7.80
2023-01-12T06:38:48.487Z,7.80
2023-01-12T06:39:48.387Z,7.83
2023-01-12T06:40:48.398Z,7.83
2023-01-12T06:41:48.470Z,7.86
2023-01-12T06:42:48.407Z,7.86
2023-01-12T06:43:48.387Z,7.87
2023-01-12T06:44:48.950Z,7.90
2023-01-12T06:45:48.324Z,7.93
2023-01-12T06:46:48.316Z,7.92
2023-01-12T06:47:48.336Z,7.93
2023-01-12T06:48:48.303Z,7.93
2023-01-12T06:49:48.303Z,7.92
2023-01-12T06:50:48.273Z,7.90
2023-01-12T06:51:48.236Z,7.92
2023-01-12T06:52:48.252Z,7.92
2023-01-12T06:53:49.049Z,7.93
2023-01-12T06:54:48.231Z,7.92
2023-01-12T06:55:48.182Z,7.92
2023-01-12T06:56:48.185Z,7.90
2023-01-12T06:57:48.234Z,7.90
2023-01-12T06:58:48.179Z,7.92
2023-01-12T06:59:48.207Z,7.93
2023-01-12T07:00:48.153Z,7.93
2023-01-12T07:01:48.213Z,7.97
2023-01-12T07:02:48.144Z,8.01
2023-01-12T07:03:48.111Z,8.04
2023-01-12T07:04:48.092Z,8.04
2023-01-12T07:05:48.116Z,8.05
2023-01-12T07:06:48.062Z,8.04
2023-01-12T07:07:48.039Z,8.04
2023-01-12T07:08:48.082Z,8.04
2023-01-12T07:09:48.010Z,8.04
2023-01-12T07:10:48.023Z,8.08
2023-01-12T07:11:48.054Z,8.15
2023-01-12T07:12:48.000Z,8.20
2023-01-12T07:13:47.972Z,8.20
2023-01-12T07:14:47.979Z,8.18
2023-01-12T07:15:48.031Z,8.18
2023-01-12T07:16:47.957Z,8.18
2023-01-12T07:17:48.508Z,8.18
2023-01-12T07:18:47.908Z,8.18
2023-01-12T07:19:47.884Z,8.16
2023-01-12T07:20:47.910Z,8.19
2023-01-12T07:21:47.858Z,8.19
2023-01-12T07:22:47.858Z,8.20
2023-01-12T07:23:47.916Z,8.19
2023-01-12T07:24:47.862Z,8.19
2023-01-12T07:25:47.853Z,8.18
2023-01-12T07:26:47.839Z,8.18
2023-01-12T07:27:47.817Z,8.19
2023-01-12T07:28:47.805Z,8.20
2023-01-12T07:29:47.747Z,8.20
2023-01-12T07:30:47.858Z,8.19
2023-01-12T07:31:47.827Z,8.20
2023-01-12T07:32:47.739Z,8.20
2023-01-12T07:33:47.698Z,8.19
2023-01-12T07:34:47.711Z,8.23
2023-01-12T07:35:47.713Z,8.25
2023-01-12T07:36:47.679Z,8.26
2023-01-12T07:37:47.744Z,8.28
2023-01-12T07:38:47.666Z,8.30
2023-01-12T07:39:47.624Z,8.30
2023-01-12T07:40:47.644Z,8.30
2023-01-12T07:41:47.595Z,8.34
2023-01-12T07:42:47.614Z,8.36
2023-01-12T07:43:47.686Z,8.36
2023-01-12T07:44:47.565Z,8.38
2023-01-12T07:45:47.589Z,8.38
2023-01-12T07:46:47.620Z,8.44
2023-01-12T07:47:47.553Z,8.45
2023-01-12T07:48:47.502Z,8.45
2023-01-12T07:49:47.665Z,8.45
2023-01-12T07:50:47.529Z,8.48
2023-01-12T07:51:47.479Z,8.52
2023-01-12T07:52:47.500Z,8.53
2023-01-12T07:53:47.471Z,8.55
2023-01-12T07:54:47.439Z,8.56
2023-01-12T07:55:48.158Z,8.55
2023-01-12T07:56:47.430Z,8.56
2023-01-12T07:57:47.429Z,8.61
2023-01-12T07:58:47.394Z,8.66
2023-01-12T07:59:47.382Z,8.70
2023-01-12T08:00:47.364Z,8.74
2023-01-12T08:01:47.467Z,8.76
2023-01-12T08:02:48.257Z,8.77
2023-01-12T08:03:47.358Z,8.80
2023-01-12T08:04:47.325Z,8.81
2023-01-12T08:05:47.389Z,8.84
2023-01-12T08:06:47.320Z,8.89
2023-01-12T08:07:48.126Z,8.92
2023-01-12T08:08:47.247Z,8.92
2023-01-12T08:09:47.298Z,8.98
2023-01-12T08:10:47.235Z,9.02
2023-01-12T08:11:47.232Z,9.04
2023-01-12T08:12:47.204Z,9.10
2023-01-12T08:13:47.309Z,9.10
2023-01-12T08:14:47.177Z,9.14
2023-01-12T08:15:47.261Z,9.15
2023-01-12T08:16:47.205Z,9.20
2023-01-12T08:17:47.223Z,9.21
2023-01-12T08:18:47.134Z,9.23
2023-01-12T08:19:47.469Z,9.23
2023-01-12T08:20:47.095Z,9.24
2023-01-12T08:21:47.111Z,9.24
2023-01-12T08:22:47.135Z,9.24
2023-01-12T08:23:47.097Z,9.24
2023-01-12T08:24:47.082Z,9.28
2023-01-12T08:25:47.085Z,9.31
2023-01-12T08:26:47.078Z,9.29
2023-01-12T08:27:47.053Z,9.32
2023-01-12T08:28:47.023Z,9.32
2023-01-12T08:29:47.020Z,9.35
2023-01-12T08:30:47.092Z,9.38
2023-01-12T08:31:47.014Z,9.36
2023-01-12T08:32:46.963Z,9.38
2023-01-12T08:33:46.960Z,9.39
2023-01-12T08:34:46.936Z,9.46
2023-01-12T08:35:46.945Z,9.48
2023-01-12T08:36:47.041Z,9.51
2023-01-12T08:37:46.910Z,9.54
2023-01-12T08:38:46.871Z,9.58
2023-01-12T08:39:46.907Z,9.60
2023-01-12T08:40:46.862Z,9.64
2023-01-12T08:41:46.865Z,9.66
2023-01-12T08:42:48.302Z,9.66
2023-01-12T08:43:46.859Z,9.69
2023-01-12T08:44:46.807Z,9.72
2023-01-12T08:45:46.808Z,9.75
2023-01-12T08:46:46.858Z,9.75
2023-01-12T08:47:46.788Z,9.78
2023-01-12T08:48:46.866Z,9.76
2023-01-12T08:49:46.773Z,9.76
2023-01-12T08:50:46.737Z,9.78
2023-01-12T08:51:46.725Z,9.79
2023-01-12T08:52:46.701Z,9.81
2023-01-12T08:53:46.707Z,9.81
2023-01-12T08:54:46.763Z,9.79
2023-01-12T08:55:46.680Z,9.79
2023-01-12T08:56:46.663Z,9.81
2023-01-12T08:57:46.661Z,9.83
2023-01-12T08:58:46.625Z,9.81
2023-01-12T08:59:46.636Z,9.84
2023-01-12T09:00:46.950Z,9.83
2023-01-12T09:01:46.777Z,9.81
2023-01-12T09:02:46.605Z,9.83
2023-01-12T09:03:46.574Z,9.86
2023-01-12T09:04:46.544Z,9.86
2023-01-12T09:05:46.556Z,9.87
2023-01-12T09:06:46.700Z,9.89
2023-01-12T09:07:46.536Z,9.90
2023-01-12T09:08:46.504Z,9.94
2023-01-12T09:09:46.533Z,9.94
2023-01-12T09:10:46.484Z,9.94
2023-01-12T09:11:46.474Z,9.97
2023-01-12T09:12:46.533Z,9.97
2023-01-12T09:13:46.466Z,9.96
2023-01-12T09:14:46.421Z,9.97
2023-01-12T09:16:01.118Z,9.96
2023-01-12T09:16:47.494Z,9.97
2023-01-12T09:17:46.677Z,9.97
2023-01-12T09:18:46.384Z,9.96
2023-01-12T09:19:46.390Z,9.97
2023-01-12T09:20:46.359Z,9.96
2023-01-12T09:21:46.375Z,9.96
2023-01-12T09:22:46.343Z,9.96
2023-01-12T09:23:46.441Z,9.97
2023-01-12T09:24:46.315Z,9.99
2023-01-12T09:25:46.315Z,10.01
2023-01-12T09:26:46.280Z,9.99
2023-01-12T09:27:46.332Z,10.01
2023-01-12T09:28:46.261Z,10.01
2023-01-12T09:29:46.419Z,10.01
2023-01-12T09:30:46.222Z,9.99
2023-01-12T09:31:46.354Z,10.01
2023-01-12T09:32:46.208Z,10.02
2023-01-12T09:33:46.339Z,10.02
2023-01-12T09:34:46.171Z,10.02
2023-01-12T09:35:46.183Z,10.04
2023-01-12T09:36:46.156Z,10.02
2023-01-12T09:37:46.183Z,10.02
2023-01-12T09:38:46.196Z,10.04
2023-01-12T09:39:46.148Z,10.05
2023-01-12T09:40:46.108Z,10.04
2023-01-12T09:41:46.175Z,10.07
2023-01-12T09:42:46.113Z,10.07
2023-01-12T09:43:46.117Z,10.07
2023-01-12T09:44:46.323Z,10.07
2023-01-12T09:45:46.100Z,10.05
2023-01-12T09:46:46.052Z,10.07
2023-01-12T09:47:46.039Z,10.07
2023-01-12T09:48:46.021Z,10.07
2023-01-12T09:49:46.024Z,10.02
2023-01-12T09:50:47.066Z,10.01
2023-01-12T09:51:45.994Z,9.99
2023-01-12T09:52:45.968Z,9.97
2023-01-12T09:53:47.397Z,9.97
2023-01-12T09:54:45.957Z,9.97
2023-01-12T09:55:45.944Z,9.97
2023-01-12T09:56:46.484Z,9.97
2023-01-12T09:57:45.911Z,9.97
2023-01-12T09:58:45.873Z,9.97
2023-01-12T09:59:45.905Z,9.97
2023-01-12T10:00:45.864Z,9.96
2023-01-12T10:01:46.008Z,9.97
2023-01-12T10:02:46.125Z,9.99
2023-01-12T10:03:45.843Z,10.01
2023-01-12T10:04:45.834Z,10.04
2023-01-12T10:05:45.824Z,10.05
2023-01-12T10:06:45.785Z,10.07
2023-01-12T10:07:45.806Z,10.09
2023-01-12T10:08:46.452Z,10.08
2023-01-12T10:09:45.784Z,10.12
2023-01-12T10:10:45.741Z,10.14
2023-01-12T10:11:45.764Z,10.15
2023-01-12T10:12:54.471Z,10.15
2023-01-12T10:13:52.786Z,10.17
2023-01-12T10:14:45.701Z,10.20
2023-01-12T10:15:45.687Z,10.20
2023-01-12T10:16:45.744Z,10.20
2023-01-12T10:17:51.428Z,10.22
2023-01-12T10:18:47.733Z,10.23
2023-01-12T10:19:47.535Z,10.26
2023-01-12T10:20:45.633Z,10.27
2023-01-12T10:21:45.629Z,10.26
2023-01-12T10:22:45.589Z,10.29
2023-01-12T10:23:45.598Z,10.30
2023-01-12T10:24:45.580Z,10.36
2023-01-12T10:25:45.593Z,10.42
2023-01-12T10:26:45.583Z,10.44
2023-01-12T10:27:45.535Z,10.42
2023-01-12T10:28:45.516Z,10.41
2023-01-12T10:29:45.509Z,10.40
2023-01-12T10:30:45.723Z,10.36
2023-01-12T10:31:45.536Z,10.40
2023-01-12T10:32:45.477Z,10.40
2023-01-12T10:33:45.484Z,10.40
2023-01-12T10:34:45.423Z,10.40
2023-01-12T10:35:45.433Z,10.41
2023-01-12T10:36:45.447Z,10.44
2023-01-12T10:37:45.403Z,10.41
2023-01-12T10:38:45.379Z,10.42
2023-01-12T10:39:45.409Z,10.38
2023-01-12T10:40:46.118Z,10.34
2023-01-12T10:41:45.351Z,10.34
2023-01-12T10:42:45.328Z,10.36
2023-01-12T10:43:45.370Z,10.38
2023-01-12T10:44:45.298Z,10.42
2023-01-12T10:45:45.345Z,10.40
2023-01-12T10:46:45.781Z,10.40
2023-01-12T10:47:45.267Z,10.40
2023-01-12T10:48:45.249Z,10.38
2023-01-12T10:49:45.240Z,10.45
2023-01-12T10:50:45.209Z,10.52
2023-01-12T10:51:45.245Z,10.59
2023-01-12T10:52:45.239Z,10.59
2023-01-12T10:53:45.188Z,10.60
2023-01-12T10:54:45.464Z,10.67
2023-01-12T10:55:45.168Z,10.67
2023-01-12T10:56:45.125Z,10.68
2023-01-12T10:57:45.141Z,10.70
2023-01-12T10:58:45.806Z,10.71
2023-01-12T10:59:45.107Z,10.71
2023-01-12T11:00:45.575Z,10.73
2023-01-12T11:01:45.146Z,10.76
2023-01-12T11:02:45.076Z,10.82
2023-01-12T11:03:45.079Z,10.82
2023-01-12T11:04:45.044Z,10.84
2023-01-12T11:05:45.048Z,10.81
2023-01-12T11:06:45.141Z,10.84
2023-01-12T11:07:45.026Z,10.91
2023-01-12T11:08:44.972Z,10.86
2023-01-12T11:09:44.995Z,10.94
2023-01-12T11:10:44.955Z,10.97
2023-01-12T11:11:44.994Z,11.02
2023-01-12T11:12:45.127Z,10.99
2023-01-12T11:13:44.963Z,10.99
2023-01-12T11:14:44.917Z,11.09
2023-01-12T11:15:44.924Z,11.15
2023-01-12T11:16:44.940Z,11.09
2023-01-12T11:17:44.871Z,11.11
2023-01-12T11:18:45.134Z,11.10
2023-01-12T11:19:44.865Z,11.07
2023-01-12T11:20:44.812Z,11.09
2023-01-12T11:21:44.809Z,11.14
2023-01-12T11:22:44.785Z,11.14
2023-01-12T11:23:44.797Z,11.07
2023-01-12T11:24:45.602Z,11.14
2023-01-12T11:25:44.767Z,11.15
2023-01-12T11:26:44.757Z,11.14
2023-01-12T11:27:44.743Z,11.14
2023-01-12T11:28:44.721Z,11.14
2023-01-12T11:29:44.717Z,11.10
2023-01-12T11:30:44.763Z,11.10
2023-01-12T11:31:44.682Z,11.10
2023-01-12T11:32:44.689Z,11.09
2023-01-12T11:33:44.668Z,11.06
2023-01-12T11:34:44.620Z,11.03
2023-01-12T11:35:44.652Z,11.03
2023-01-12T11:36:44.598Z,11.02
2023-01-12T11:37:44.627Z,11.00
2023-01-12T11:38:44.596Z,10.99
2023-01-12T11:39:44.582Z,10.94
2023-01-12T11:40:45.353Z,10.92
2023-01-12T11:41:44.538Z,10.88
2023-01-12T11:42:51.562Z,10.85
2023-01-12T11:43:51.560Z,10.84
2023-01-12T11:44:51.516Z,10.81
2023-01-12T11:45:51.600Z,10.78
2023-01-12T11:46:51.520Z,10.76
2023-01-12T11:47:51.479Z,10.76
2023-01-12T11:48:51.506Z,10.78
2023-01-12T11:49:44.429Z,10.78
2023-01-12T11:50:44.627Z,10.78
2023-01-12T11:51:44.422Z,10.78
2023-01-12T11:52:44.415Z,10.79
2023-01-12T11:53:44.396Z,10.79
2023-01-12T11:54:44.395Z,10.85
2023-01-12T11:55:44.390Z,10.89
2023-01-12T11:56:44.620Z,10.94
2023-01-12T11:57:44.330Z,10.97
2023-01-12T11:58:44.359Z,10.99
2023-01-12T11:59:44.306Z,11.00
2023-01-12T12:00:44.341Z,11.00
2023-01-12T12:01:44.282Z,10.97
2023-01-12T12:02:44.480Z,11.00
2023-01-12T12:03:44.318Z,11.07
2023-01-12T12:04:44.267Z,11.11
2023-01-12T12:05:44.246Z,11.17
2023-01-12T12:06:44.242Z,11.15
2023-01-12T12:07:44.190Z,11.15
2023-01-12T12:08:44.300Z,11.11
2023-01-12T12:09:44.180Z,11.14
2023-01-12T12:10:44.190Z,11.11
2023-01-12T12:11:44.177Z,11.15
2023-01-12T12:12:44.160Z,11.17
2023-01-12T12:13:44.121Z,11.17
2023-01-12T12:14:44.291Z,11.21
2023-01-12T12:15:44.174Z,11.21
2023-01-12T12:16:44.157Z,11.21
2023-01-12T12:17:44.078Z,11.17
2023-01-12T12:18:44.083Z,11.14
2023-01-12T12:19:44.064Z,11.15
2023-01-12T12:20:44.126Z,11.11
2023-01-12T12:21:44.028Z,11.11
2023-01-12T12:22:44.044Z,11.07
2023-01-12T12:23:43.998Z,11.03
2023-01-12T12:24:44.009Z,11.00
2023-01-12T12:25:44.006Z,10.94
2023-01-12T12:26:43.996Z,10.96
2023-01-12T12:27:43.940Z,10.94
2023-01-12T12:28:43.967Z,10.96
2023-01-12T12:29:43.922Z,11.00
2023-01-12T12:30:44.064Z,10.99
2023-01-12T12:31:43.897Z,11.00
2023-01-12T12:32:43.918Z,11.00
2023-01-12T12:33:43.869Z,10.97
2023-01-12T12:34:43.992Z,10.96
2023-01-12T12:35:43.863Z,10.97
2023-01-12T12:36:44.015Z,10.96
2023-01-12T12:37:43.812Z,11.00
2023-01-12T12:38:43.835Z,11.03
2023-01-12T12:39:43.798Z,11.04
2023-01-12T12:40:43.818Z,11.06
2023-01-12T12:41:43.820Z,11.09
2023-01-12T12:42:43.904Z,11.09
2023-01-12T12:43:43.737Z,11.10
2023-01-12T12:44:43.744Z,11.10
2023-01-12T12:45:43.715Z,11.09
2023-01-12T12:46:43.735Z,11.11
2023-01-12T12:47:43.683Z,11.10
2023-01-12T12:48:44.796Z,11.11
2023-01-12T12:49:43.665Z,11.11
2023-01-12T12:50:43.739Z,11.15
2023-01-12T12:51:43.631Z,11.15
2023-01-12T12:52:43.653Z,11.15
2023-01-12T12:53:43.625Z,11.14
2023-01-12T12:54:44.493Z,11.14
2023-01-12T12:55:43.580Z,11.11
2023-01-12T12:56:43.655Z,11.11
2023-01-12T12:57:43.561Z,11.10
2023-01-12T12:58:43.571Z,11.11
2023-01-12T12:59:43.573Z,11.14
2023-01-12T13:00:44.560Z,11.11
2023-01-12T13:01:43.754Z,11.14
2023-01-12T13:02:43.541Z,11.14
2023-01-12T13:03:43.470Z,11.18
2023-01-12T13:04:43.487Z,11.21
2023-01-12T13:05:43.467Z,11.18
2023-01-12T13:06:43.489Z,11.18
2023-01-12T13:07:43.439Z,11.19
2023-01-12T13:08:43.452Z,11.19
2023-01-12T13:09:43.414Z,11.21
2023-01-12T13:10:43.507Z,11.21
2023-01-12T13:11:43.381Z,11.18
2023-01-12T13:12:43.398Z,11.19
2023-01-12T13:13:43.398Z,11.22
2023-01-12T13:14:43.377Z,11.22
2023-01-12T13:15:43.341Z,11.25
2023-01-12T13:16:43.686Z,11.27
2023-01-12T13:17:43.348Z,11.27
2023-01-12T13:18:43.329Z,11.32
2023-01-12T13:19:43.291Z,11.32
2023-01-12T13:20:43.299Z,11.28
2023-01-12T13:21:43.258Z,11.28
2023-01-12T13:22:43.333Z,11.32
2023-01-12T13:23:43.237Z,11.32
2023-01-12T13:24:43.247Z,11.33
2023-01-12T13:25:43.206Z,11.33
2023-01-12T13:26:43.221Z,11.32
2023-01-12T13:27:43.165Z,11.29
2023-01-12T13:28:43.262Z,11.28
2023-01-12T13:29:43.156Z,11.25
2023-01-12T13:30:43.230Z,11.28
2023-01-12T13:31:43.116Z,11.28
2023-01-12T13:32:43.147Z,11.24
2023-01-12T13:33:43.107Z,11.25
2023-01-12T13:34:43.327Z,11.25
2023-01-12T13:35:43.071Z,11.25
2023-01-12T13:36:43.083Z,11.22
2023-01-12T13:37:43.046Z,11.22
2023-01-12T13:38:43.082Z,11.21
2023-01-12T13:39:43.023Z,11.18
2023-01-12T13:40:43.115Z,11.19
2023-01-12T13:41:43.990Z,11.15
2023-01-12T13:42:43.114Z,11.14
2023-01-12T13:43:42.964Z,11.15
2023-01-12T13:44:42.975Z,11.17
2023-01-12T13:45:42.982Z,11.17
2023-01-12T13:46:43.031Z,11.17
2023-01-12T13:47:43.288Z,11.18
2023-01-12T13:48:42.947Z,11.21
2023-01-12T13:49:49.957Z,11.19
2023-01-12T13:50:49.912Z,11.17
2023-01-12T13:51:49.926Z,11.17
2023-01-12T13:52:50.443Z,11.17
2023-01-12T13:53:50.869Z,11.14
2023-01-12T13:54:42.831Z,11.15
2023-01-12T13:55:42.867Z,11.14
2023-01-12T13:56:42.819Z,11.10
2023-01-12T13:57:42.795Z,11.11
2023-01-12T13:58:42.789Z,11.11
2023-01-12T13:59:42.761Z,11.11
2023-01-12T14:00:42.931Z,11.07
2023-01-12T14:01:42.930Z,11.07
2023-01-12T14:02:42.886Z,11.04
2023-01-12T14:03:42.732Z,11.02
2023-01-12T14:04:42.724Z,11.00
2023-01-12T14:05:42.686Z,10.97
2023-01-12T14:06:42.700Z,10.96
2023-01-12T14:07:42.657Z,10.94
2023-01-12T14:08:51.339Z,10.96
2023-01-12T14:09:43.651Z,10.97
2023-01-12T14:10:42.645Z,10.96
2023-01-12T14:11:42.608Z,10.94
2023-01-12T14:12:42.635Z,10.96
2023-01-12T14:13:42.583Z,10.97
2023-01-12T14:14:42.995Z,10.99
2023-01-12T14:15:42.680Z,10.99
2023-01-12T14:16:42.572Z,11.00
2023-01-12T14:17:43.525Z,10.99
2023-01-12T14:18:42.568Z,10.99
2023-01-12T14:19:42.511Z,10.99
2023-01-12T14:20:42.545Z,11.00
2023-01-12T14:21:42.469Z,11.02
2023-01-12T14:22:42.488Z,11.00
2023-01-12T14:23:42.446Z,10.99
2023-01-12T14:24:42.473Z,11.02
2023-01-12T14:25:42.506Z,11.02
2023-01-12T14:26:42.435Z,11.02
2023-01-12T14:27:42.523Z,11.02
2023-01-12T14:28:42.438Z,11.02
2023-01-12T14:29:42.364Z,11.03
2023-01-12T14:30:42.367Z,11.00
2023-01-12T14:31:42.714Z,11.00
2023-01-12T14:32:42.344Z,11.02
2023-01-12T14:33:42.310Z,11.00
2023-01-12T14:34:42.329Z,10.97
2023-01-12T14:35:42.281Z,10.99
2023-01-12T14:36:42.291Z,10.97
2023-01-12T14:37:42.602Z,10.97
2023-01-12T14:38:42.255Z,10.94
2023-01-12T14:39:42.221Z,10.91
2023-01-12T14:40:42.244Z,10.89
2023-01-12T14:41:42.213Z,10.88
2023-01-12T14:42:42.211Z,10.86
2023-01-12T14:43:42.399Z,10.85
2023-01-12T14:44:42.223Z,10.82
2023-01-12T14:45:42.181Z,10.84
2023-01-12T14:46:42.214Z,10.84
2023-01-12T14:47:42.175Z,10.84
2023-01-12T14:48:42.139Z,10.84
2023-01-12T14:49:42.146Z,10.85
2023-01-12T14:50:42.147Z,10.86
2023-01-12T14:51:42.095Z,10.84
2023-01-12T14:52:42.113Z,10.82
2023-01-12T14:53:42.075Z,10.81
2023-01-12T14:54:42.077Z,10.82
2023-01-12T14:55:42.134Z,10.82
2023-01-12T14:56:42.035Z,10.82
2023-01-12T14:57:42.984Z,10.82
2023-01-12T14:58:41.995Z,10.81
2023-01-12T14:59:41.987Z,10.81
2023-01-12T15:00:42.012Z,10.79
2023-01-12T15:01:42.261Z,10.82
2023-01-12T15:02:41.970Z,10.84
2023-01-12T15:03:44.020Z,10.82
2023-01-12T15:04:41.993Z,10.84
2023-01-12T15:05:42.080Z,10.84
2023-01-12T15:06:41.938Z,10.82
2023-01-12T15:07:41.874Z,10.81
2023-01-12T15:08:41.894Z,10.79
2023-01-12T15:09:41.850Z,10.78
2023-01-12T15:10:41.882Z,10.79
2023-01-12T15:11:42.139Z,10.76
2023-01-12T15:12:41.826Z,10.78
2023-01-12T15:13:41.802Z,10.73
2023-01-12T15:14:41.801Z,10.73
2023-01-12T15:15:41.765Z,10.73
2023-01-12T15:16:41.872Z,10.73
2023-01-12T15:17:41.809Z,10.71
2023-01-12T15:18:41.780Z,10.71
2023-01-12T15:19:41.727Z,10.70
2023-01-12T15:20:41.733Z,10.67
2023-01-12T15:21:41.686Z,10.68
2023-01-12T15:22:41.700Z,10.66
2023-01-12T15:23:42.358Z,10.64
2023-01-12T15:24:41.669Z,10.63
2023-01-12T15:25:41.647Z,10.64
2023-01-12T15:26:41.640Z,10.66
2023-01-12T15:27:41.618Z,10.66
2023-01-12T15:28:41.624Z,10.67
2023-01-12T15:29:41.790Z,10.67
2023-01-12T15:30:41.605Z,10.66
2023-01-12T15:31:41.615Z,10.64
2023-01-12T15:32:48.249Z,10.66
2023-01-12T15:33:42.598Z,10.64
2023-01-12T15:34:41.558Z,10.63
2023-01-12T15:35:41.772Z,10.63
2023-01-12T15:36:41.538Z,10.60
2023-01-12T15:37:41.490Z,10.59
2023-01-12T15:38:41.491Z,10.56
2023-01-12T15:39:41.484Z,10.53
2023-01-12T15:40:41.503Z,10.55
2023-01-12T15:41:41.523Z,10.53
2023-01-12T15:42:41.446Z,10.53
2023-01-12T15:43:41.433Z,10.52
2023-01-12T15:44:41.404Z,10.48
2023-01-12T15:45:41.464Z,10.48
2023-01-12T15:46:41.403Z,10.48
2023-01-12T15:47:41.439Z,10.45
2023-01-12T15:48:41.354Z,10.45
2023-01-12T15:49:42.124Z,10.44
2023-01-12T15:50:41.335Z,10.42
2023-01-12T15:51:41.341Z,10.41
2023-01-12T15:52:41.305Z,10.41
2023-01-12T15:53:41.424Z,10.40
2023-01-12T15:54:41.302Z,10.36
2023-01-12T15:55:41.326Z,10.36
2023-01-12T15:56:41.272Z,10.34
2023-01-12T15:57:41.261Z,10.33
2023-01-12T15:58:41.287Z,10.32
2023-01-12T15:59:41.466Z,10.29
2023-01-12T16:00:41.207Z,10.29
2023-01-12T16:01:41.366Z,10.27
2023-01-12T16:02:41.244Z,10.29
2023-01-12T16:04:15.026Z,10.29
2023-01-12T16:04:43.717Z,10.29
2023-01-12T16:05:41.203Z,10.29
2023-01-12T16:06:41.171Z,10.29
2023-01-12T16:07:41.199Z,10.29
2023-01-12T16:08:41.100Z,10.26
2023-01-12T16:09:41.350Z,10.27
2023-01-12T16:10:48.123Z,10.25
2023-01-12T16:11:48.119Z,10.23
2023-01-12T16:12:48.148Z,10.20
2023-01-12T16:13:48.091Z,10.20
2023-01-12T16:14:48.562Z,10.17
2023-01-12T16:15:48.048Z,10.14
2023-01-12T16:16:41.813Z,10.14
2023-01-12T16:17:41.044Z,10.14
2023-01-12T16:18:40.985Z,10.11
2023-01-12T16:19:41.073Z,10.09
2023-01-12T16:20:41.157Z,10.08
2023-01-12T16:21:40.976Z,10.07
2023-01-12T16:22:40.967Z,10.05
2023-01-12T16:23:40.937Z,10.08
2023-01-12T16:24:41.069Z,10.08
2023-01-12T16:25:40.904Z,10.08
2023-01-12T16:26:40.873Z,10.07
2023-01-12T16:27:40.891Z,10.07
2023-01-12T16:28:40.856Z,10.07
2023-01-12T16:29:40.967Z,10.04
2023-01-12T16:30:43.250Z,10.04
2023-01-12T16:31:40.879Z,10.02
2023-01-12T16:32:40.810Z,10.01
2023-01-12T16:33:40.816Z,9.97
2023-01-12T16:34:40.786Z,9.99
2023-01-12T16:35:40.791Z,9.97
2023-01-12T16:36:40.902Z,9.97
2023-01-12T16:37:40.797Z,9.97
2023-01-12T16:38:40.740Z,9.99
2023-01-12T16:39:40.739Z,9.99
2023-01-12T16:40:40.771Z,9.96
2023-01-12T16:41:40.701Z,9.97
2023-01-12T16:42:40.708Z,9.96
2023-01-12T16:43:40.692Z,9.96
2023-01-12T16:44:40.662Z,9.99
2023-01-12T16:45:41.200Z,10.01
2023-01-12T16:46:40.634Z,10.04
2023-01-12T16:47:40.791Z,10.04
2023-01-12T16:48:40.607Z,10.04
2023-01-12T16:49:40.619Z,10.01
2023-01-12T16:50:40.583Z,10.02
2023-01-12T16:51:40.783Z,10.05
2023-01-12T16:52:40.560Z,10.04
2023-01-12T16:53:40.559Z,10.04
2023-01-12T16:54:40.537Z,10.04
2023-01-12T16:55:40.544Z,10.02
2023-01-12T16:56:40.495Z,10.01
2023-01-12T16:57:40.547Z,9.99
2023-01-12T16:58:40.527Z,9.96
2023-01-12T16:59:40.534Z,9.94
2023-01-12T17:00:41.580Z,9.91
2023-01-12T17:01:40.517Z,9.90
2023-01-12T17:02:40.600Z,9.89
2023-01-12T17:03:40.465Z,9.86
2023-01-12T17:04:40.395Z,9.84
2023-01-12T17:05:40.425Z,9.81
2023-01-12T17:06:40.617Z,9.81
2023-01-12T17:07:40.375Z,9.83
2023-01-12T17:08:40.382Z,9.78
2023-01-12T17:09:40.389Z,9.78
2023-01-12T17:10:40.323Z,9.78
2023-01-12T17:11:40.327Z,9.78
2023-01-12T17:12:54.080Z,9.83
2023-01-12T17:14:50.480Z,9.84
2023-01-12T17:15:52.347Z,9.83
2023-01-12T17:16:50.440Z,9.84
2023-01-12T17:17:50.534Z,9.84
2023-01-12T17:18:50.431Z,9.84
2023-01-12T17:19:50.420Z,9.87
2023-01-12T17:20:54.004Z,9.86
2023-01-12T17:21:50.731Z,9.87
2023-01-12T17:22:50.361Z,9.87
2023-01-12T17:23:50.601Z,9.87
2023-01-12T17:24:50.348Z,9.90
2023-01-12T17:25:50.370Z,9.90
2023-01-12T17:26:50.318Z,9.93
2023-01-12T17:27:50.328Z,9.91
2023-01-12T17:28:50.302Z,9.91
2023-01-12T17:29:50.338Z,9.90
2023-01-12T17:30:50.503Z,9.91
2023-01-12T17:31:50.281Z,9.89
2023-01-12T17:32:50.240Z,9.87
2023-01-12T17:33:50.255Z,9.89
2023-01-12T17:34:50.208Z,9.91
2023-01-12T17:35:50.226Z,9.93
2023-01-12T17:36:50.989Z,9.94
2023-01-12T17:37:50.195Z,9.94
2023-01-12T17:38:50.170Z,9.93
2023-01-12T17:39:50.176Z,9.91
2023-01-12T17:40:50.143Z,9.90
2023-01-12T17:41:50.159Z,9.89
2023-01-12T17:42:50.147Z,9.87
2023-01-12T17:43:50.123Z,9.87
2023-01-12T17:44:50.091Z,9.87
2023-01-12T17:45:50.160Z,9.86
2023-01-12T17:46:50.855Z,9.87
2023-01-12T17:47:50.065Z,9.87
2023-01-12T17:48:50.301Z,9.89
2023-01-12T17:49:50.042Z,9.87
2023-01-12T17:50:50.015Z,9.86
2023-01-12T17:51:50.037Z,9.87
2023-01-12T17:52:50.032Z,9.87
2023-01-12T17:53:49.990Z,9.89
2023-01-12T17:54:49.954Z,9.90
2023-01-12T17:55:51.032Z,9.89
2023-01-12T17:56:49.929Z,9.90
2023-01-12T17:57:49.931Z,9.89
2023-01-12T17:58:50.353Z,9.89
2023-01-12T17:59:50.185Z,9.89
2023-01-12T18:00:49.888Z,9.91
2023-01-12T18:01:50.001Z,9.91
2023-01-12T18:02:49.913Z,9.90
2023-01-12T18:03:49.872Z,9.90
2023-01-12T18:04:49.882Z,9.87
2023-01-12T18:06:02.917Z,9.84